Skip Navigation LinksHome page > Weather > Current weather Skip Navigation Links

Current Weather

Lambert-St Louis Intl, St Louis, Mo.

For information only: do not use for flight planning or navigation.
Latest weather
Observation time Thursday, November 21, 2019 1:47 PM CST
Local time Thursday, November 21, 2019 1:59 PM CST
Flight conditions Marginal Visual Meteorological Conditions
Winds
Wind direction West-Northwest (290°)
Wind speed 14 mph
Wind gusting to 23 mph
Visibility 9 mi.
Sky condition
Ceiling 2,300 ft. broken clouds
Cloud layer few clouds 1,200 ft.
Cloud layer broken clouds 2,300 ft.
Cloud layer overcast 3,800 ft.
Temperature 61°F
Dewpoint 55°F
Altimeter 29.90 in.Hg
Derived measurements
Relative humidity 82%
Density altitude 955 ft.
Remarks
Automated weather observing station with precipitation discriminator.
METAR KSTL 211947Z 29012G20KT 9SM FEW012 BKN023 OVC038 16/13 A2990 RMK AO2

Settings

Location code

InnerDrive.Weather 4.0.6770.0 Release CLR 4.0.30319.42000
Copyright ©2018 Inner Drive Technology. All rights reserved. Portions Copyright ©1986-2018 David Braverman.

Find weather

Site navigation


Skip Navigation Links

Place info

Page info

PayPal - The safer, easier way to pay online!

Return home.

Copyright ©2019 Inner Drive Technology. Purveyors of fine, hand-crafted computer software. Page printed 2019-11-21T19:59:37 UTC.